Scottsburg, Virginia
Current Conditions -  °F | °C
As of 2:55 PM on Thursday 30 Oct 2014 (Local Time) from KW78 Reporting Station
Clear Clear  
Wind Chill: 64°   Ceiling: Unl
Heat Index: 64°   Visibility: 10mi
Dew Point: 32°   Wind: 0mph
Humidity: 30%   Direction: NA
Pressure: 29.99"   Gusts: NA
Location:  36.76°N, 78.79°W
Report Text: KW78 301855Z AUTO 00000KT 10SM CLR 18/00 A2999 RMK AO1 T01790002
Loading
Personal Weather Stations






























Interactive Weather Map
Tropical Storm Tracking
New forecast layout! Learn more

10-Day Weather Forecast

Advertisements
Track Severe Weather on mobile